createdAt,value
2024-02-16T00:02:26.838Z,8.27
2024-02-16T00:04:57.876Z,7.17
2024-02-16T00:07:27.862Z,10.47
2024-02-16T00:09:55.996Z,6.67
2024-02-16T00:12:27.945Z,9.53
2024-02-16T00:15:10.123Z,8.13
2024-02-16T00:17:38.845Z,8.00
2024-02-16T00:20:13.830Z,6.63
2024-02-16T00:22:46.051Z,6.60
2024-02-16T00:25:19.295Z,8.13
2024-02-16T00:27:51.407Z,6.93
2024-02-16T00:30:19.985Z,9.57
2024-02-16T00:32:48.939Z,12.53
2024-02-16T00:35:19.131Z,6.23
2024-02-16T00:37:47.907Z,7.77
2024-02-16T00:40:16.273Z,5.87
2024-02-16T00:42:47.391Z,11.87
2024-02-16T00:45:19.703Z,6.20
2024-02-16T00:47:50.078Z,5.87
2024-02-16T00:50:24.929Z,9.00
2024-02-16T00:52:52.916Z,6.17
2024-02-16T00:55:21.183Z,7.20
2024-02-16T00:57:50.373Z,10.53
2024-02-16T01:00:27.012Z,7.73
2024-02-16T01:02:56.343Z,7.90
2024-02-16T01:05:34.435Z,5.20
2024-02-16T01:08:03.074Z,6.13
2024-02-16T01:10:31.952Z,8.80
2024-02-16T01:12:59.836Z,6.43
2024-02-16T01:15:42.537Z,8.03
2024-02-16T01:18:11.027Z,9.73
2024-02-16T01:20:42.096Z,5.50
2024-02-16T01:23:10.410Z,6.03
2024-02-16T01:25:38.849Z,8.67
2024-02-16T01:28:08.887Z,7.60
2024-02-16T01:30:38.138Z,7.47
2024-02-16T01:33:07.579Z,5.57
2024-02-16T01:35:37.548Z,4.60
2024-02-16T01:38:12.337Z,6.23
2024-02-16T01:40:43.470Z,6.93
2024-02-16T01:43:11.450Z,4.57
2024-02-16T01:45:41.025Z,4.67
2024-02-16T01:48:10.363Z,8.70
2024-02-16T01:50:40.523Z,6.57
2024-02-16T01:53:14.036Z,9.80
2024-02-16T01:55:44.430Z,5.67
2024-02-16T01:58:15.497Z,8.43
2024-02-16T02:00:45.077Z,11.13
2024-02-16T02:03:17.066Z,13.70
2024-02-16T02:05:53.818Z,7.83
2024-02-16T02:08:37.395Z,6.70
2024-02-16T02:11:06.989Z,11.93
2024-02-16T02:13:35.171Z,5.73
2024-02-16T02:16:11.931Z,7.00
2024-02-16T02:18:45.162Z,9.73
2024-02-16T02:21:15.752Z,5.60
2024-02-16T02:23:49.253Z,7.20
2024-02-16T02:26:18.844Z,7.33
2024-02-16T02:28:49.982Z,6.00
2024-02-16T02:31:20.010Z,6.40
2024-02-16T02:33:58.220Z,9.57
2024-02-16T02:36:26.822Z,11.67
2024-02-16T02:39:02.322Z,12.77
2024-02-16T02:41:31.351Z,9.07
2024-02-16T02:44:03.897Z,6.90
2024-02-16T02:46:34.397Z,6.93
2024-02-16T02:49:04.819Z,5.17
2024-02-16T02:51:36.334Z,7.50
2024-02-16T02:54:09.674Z,6.93
2024-02-16T02:56:39.388Z,7.53
2024-02-16T02:59:08.107Z,10.83
2024-02-16T03:01:40.419Z,8.60
2024-02-16T03:04:11.535Z,12.10
2024-02-16T03:06:42.442Z,7.37
2024-02-16T03:09:19.880Z,6.03
2024-02-16T03:11:49.030Z,7.03
2024-02-16T03:14:19.118Z,6.77
2024-02-16T03:16:48.092Z,8.33
2024-02-16T03:19:17.579Z,8.10
2024-02-16T03:21:45.810Z,10.33
2024-02-16T03:24:17.950Z,6.90
2024-02-16T03:26:48.216Z,10.17
2024-02-16T03:29:18.181Z,6.43
2024-02-16T03:31:48.808Z,6.63
2024-02-16T03:34:20.008Z,8.70
2024-02-16T03:36:48.882Z,7.40
2024-02-16T03:39:21.684Z,7.37
2024-02-16T03:41:52.241Z,7.23
2024-02-16T03:44:20.402Z,10.07
2024-02-16T03:46:51.336Z,7.13
2024-02-16T03:49:20.695Z,8.03
2024-02-16T03:51:52.008Z,10.73
2024-02-16T03:54:22.573Z,7.60
2024-02-16T03:56:50.530Z,6.67
2024-02-16T03:59:21.946Z,8.03
2024-02-16T04:01:49.856Z,6.73
2024-02-16T04:04:20.782Z,5.57
2024-02-16T04:06:52.697Z,8.70
2024-02-16T04:09:23.993Z,8.10
2024-02-16T04:11:52.953Z,8.03
2024-02-16T04:14:22.648Z,8.20
2024-02-16T04:16:51.428Z,9.37
2024-02-16T04:19:19.580Z,7.90
2024-02-16T04:21:47.622Z,11.53
2024-02-16T04:24:18.585Z,11.57
2024-02-16T04:26:50.295Z,8.47
2024-02-16T04:29:19.914Z,7.63
2024-02-16T04:31:47.884Z,9.00
2024-02-16T04:34:17.643Z,6.83
2024-02-16T04:36:47.099Z,7.63
2024-02-16T04:39:16.069Z,7.83
2024-02-16T04:41:44.440Z,9.40
2024-02-16T04:44:14.467Z,6.93
2024-02-16T04:46:42.717Z,6.67
2024-02-16T04:49:12.295Z,10.00
2024-02-16T04:51:44.320Z,9.60
2024-02-16T04:54:15.488Z,7.30
2024-02-16T04:56:44.954Z,7.63
2024-02-16T04:59:15.649Z,11.20
2024-02-16T05:01:48.859Z,6.77
2024-02-16T05:04:21.051Z,8.53
2024-02-16T05:06:50.746Z,6.77
2024-02-16T05:09:21.694Z,9.57
2024-02-16T05:11:53.291Z,5.67
2024-02-16T05:14:25.132Z,9.40
2024-02-16T05:16:54.278Z,7.00
2024-02-16T05:19:23.370Z,7.30
2024-02-16T05:21:52.906Z,9.47
2024-02-16T05:24:22.640Z,6.30
2024-02-16T05:26:52.985Z,9.20
2024-02-16T05:29:23.566Z,8.03
2024-02-16T05:31:53.840Z,8.03
2024-02-16T05:34:22.606Z,8.33
2024-02-16T05:36:52.242Z,6.70
2024-02-16T05:39:32.852Z,16.63
2024-02-16T05:42:01.486Z,10.60
2024-02-16T05:44:34.411Z,9.10
2024-02-16T05:47:04.603Z,6.40
2024-02-16T05:49:33.597Z,6.83
2024-02-16T05:52:20.220Z,7.97
2024-02-16T05:54:48.976Z,9.33
2024-02-16T05:57:17.738Z,8.33
2024-02-16T05:59:53.078Z,7.23
2024-02-16T06:02:22.552Z,5.20
2024-02-16T06:04:51.173Z,6.80
2024-02-16T06:07:22.218Z,9.50
2024-02-16T06:09:55.387Z,6.33
2024-02-16T06:12:26.699Z,8.03
2024-02-16T06:15:01.310Z,6.93
2024-02-16T06:17:30.507Z,8.87
2024-02-16T06:20:00.948Z,10.53
2024-02-16T06:22:29.368Z,9.87
2024-02-16T06:24:58.653Z,10.73
2024-02-16T06:27:27.459Z,10.90
2024-02-16T06:29:58.616Z,12.07
2024-02-16T06:32:27.350Z,10.93
2024-02-16T06:34:55.846Z,9.83
2024-02-16T06:37:27.293Z,9.90
2024-02-16T06:39:56.341Z,11.73
2024-02-16T06:42:24.702Z,10.87
2024-02-16T06:44:54.335Z,7.87
2024-02-16T06:47:27.276Z,9.30
2024-02-16T06:49:55.885Z,14.63
2024-02-16T06:52:25.533Z,7.30
2024-02-16T06:54:55.150Z,16.20
2024-02-16T06:57:30.868Z,15.57
2024-02-16T07:00:06.413Z,14.27
2024-02-16T07:02:37.176Z,13.17
2024-02-16T07:05:09.425Z,12.10
2024-02-16T07:07:38.576Z,15.33
2024-02-16T07:10:14.407Z,13.93
2024-02-16T07:12:43.849Z,9.57
2024-02-16T07:15:11.793Z,15.37
2024-02-16T07:17:42.969Z,13.17
2024-02-16T07:20:12.106Z,10.97
2024-02-16T07:22:42.165Z,9.97
2024-02-16T07:25:21.207Z,16.00
2024-02-16T07:27:50.082Z,14.13
2024-02-16T07:30:23.529Z,15.43
2024-02-16T07:33:00.385Z,20.90
2024-02-16T07:35:29.123Z,16.90
2024-02-16T07:37:57.065Z,18.33
2024-02-16T07:40:27.036Z,25.10
2024-02-16T07:42:55.481Z,15.47
2024-02-16T07:45:24.034Z,9.60
2024-02-16T07:47:53.254Z,16.87
2024-02-16T07:50:23.696Z,17.10
2024-02-16T07:52:55.521Z,19.00
2024-02-16T07:55:25.808Z,10.87
2024-02-16T07:57:54.326Z,11.03
2024-02-16T08:00:24.234Z,11.50
2024-02-16T08:02:53.744Z,16.70
2024-02-16T08:05:25.531Z,18.30
2024-02-16T08:08:04.746Z,16.93
2024-02-16T08:10:47.419Z,18.70
2024-02-16T08:13:24.415Z,15.70
2024-02-16T08:15:58.643Z,16.70
2024-02-16T08:18:30.062Z,19.90
2024-02-16T08:21:04.483Z,17.13
2024-02-16T08:23:35.752Z,12.90
2024-02-16T08:26:07.012Z,17.67
2024-02-16T08:28:36.745Z,13.23
2024-02-16T08:31:05.804Z,10.60
2024-02-16T08:33:38.467Z,10.67
2024-02-16T08:36:11.297Z,8.37
2024-02-16T08:38:45.168Z,7.77
2024-02-16T08:41:21.537Z,9.10
2024-02-16T08:43:53.204Z,8.80
2024-02-16T08:46:26.652Z,7.47
2024-02-16T08:49:03.265Z,6.90
2024-02-16T08:51:40.728Z,7.50
2024-02-16T08:54:11.021Z,11.07
2024-02-16T08:56:41.120Z,7.00
2024-02-16T08:59:12.207Z,10.83
2024-02-16T09:01:43.747Z,10.10
2024-02-16T09:07:04.670Z,11.10
2024-02-16T09:09:43.186Z,9.33
2024-02-16T09:12:16.753Z,11.47
2024-02-16T09:14:56.052Z,9.23
2024-02-16T09:17:26.173Z,9.93
2024-02-16T09:19:56.440Z,11.73
2024-02-16T09:25:06.722Z,11.10
2024-02-16T09:27:49.626Z,9.03
2024-02-16T09:30:23.775Z,12.27
2024-02-16T09:33:10.103Z,8.00
2024-02-16T09:35:41.330Z,9.77
2024-02-16T09:38:12.195Z,11.77
2024-02-16T09:40:42.442Z,15.00
2024-02-16T09:43:13.932Z,9.70
2024-02-16T09:45:42.326Z,17.27
2024-02-16T09:48:11.947Z,16.57
2024-02-16T09:50:40.131Z,9.13
2024-02-16T09:53:13.591Z,11.97
2024-02-16T09:55:43.243Z,12.87
2024-02-16T09:58:18.557Z,9.40
2024-02-16T10:00:52.625Z,8.23
2024-02-16T10:03:31.845Z,13.47
2024-02-16T10:06:13.512Z,8.53
2024-02-16T10:08:52.232Z,9.47
2024-02-16T10:11:28.978Z,11.93
2024-02-16T10:14:05.256Z,11.23
2024-02-16T10:16:36.398Z,10.47
2024-02-16T10:19:18.632Z,8.67
2024-02-16T10:21:52.718Z,7.93
2024-02-16T10:24:27.694Z,15.40
2024-02-16T10:26:59.120Z,9.03
2024-02-16T10:29:32.970Z,9.50
2024-02-16T10:32:04.752Z,8.20
2024-02-16T10:34:36.657Z,16.80
2024-02-16T10:37:11.023Z,12.93
2024-02-16T10:39:47.977Z,6.10
2024-02-16T10:42:22.032Z,11.93
2024-02-16T10:44:55.932Z,7.77
2024-02-16T10:47:28.326Z,10.60
2024-02-16T10:49:57.587Z,11.20
2024-02-16T10:52:28.540Z,9.00
2024-02-16T10:55:02.087Z,8.80
2024-02-16T10:57:30.777Z,7.87
2024-02-16T11:00:05.066Z,6.87
2024-02-16T11:03:00.793Z,8.63
2024-02-16T11:05:37.050Z,7.27
2024-02-16T11:08:07.047Z,6.40
2024-02-16T11:10:39.894Z,8.73
2024-02-16T11:13:09.099Z,7.93
2024-02-16T11:15:39.769Z,8.23
2024-02-16T11:18:13.817Z,8.20
2024-02-16T11:20:43.081Z,8.27
2024-02-16T11:23:16.374Z,7.90
2024-02-16T11:25:52.592Z,11.00
2024-02-16T11:28:22.023Z,7.10
2024-02-16T11:30:56.302Z,8.53
2024-02-16T11:33:29.888Z,8.43
2024-02-16T11:36:01.100Z,8.73
2024-02-16T11:38:30.284Z,8.63
2024-02-16T11:41:02.362Z,13.33
2024-02-16T11:43:33.615Z,7.37
2024-02-16T11:46:15.236Z,6.73
2024-02-16T11:48:44.597Z,6.47
2024-02-16T11:51:18.470Z,6.80
2024-02-16T11:54:02.582Z,6.27
2024-02-16T11:56:36.336Z,10.00
2024-02-16T11:59:06.195Z,5.77
2024-02-16T12:01:35.702Z,7.80
2024-02-16T12:04:06.119Z,6.43
2024-02-16T12:06:38.704Z,6.60
2024-02-16T12:09:06.928Z,7.33
2024-02-16T12:11:38.646Z,9.27
2024-02-16T12:14:14.121Z,11.53
2024-02-16T12:16:42.545Z,12.40
2024-02-16T12:19:12.240Z,5.87
2024-02-16T12:21:47.144Z,9.57
2024-02-16T12:24:16.066Z,8.23
2024-02-16T12:26:50.570Z,8.57
2024-02-16T12:29:19.098Z,8.70
2024-02-16T12:31:50.572Z,8.73
2024-02-16T12:34:19.785Z,9.33
2024-02-16T12:36:51.343Z,12.03
2024-02-16T12:39:24.042Z,10.73
2024-02-16T12:41:56.375Z,7.03
2024-02-16T12:44:26.501Z,6.50
2024-02-16T12:46:54.284Z,5.73
2024-02-16T12:49:24.052Z,4.90
2024-02-16T12:51:52.281Z,8.43
2024-02-16T12:54:23.002Z,4.87
2024-02-16T12:56:52.968Z,5.80
2024-02-16T12:59:25.496Z,5.20
2024-02-16T13:01:53.911Z,3.90
2024-02-16T13:04:24.019Z,4.20
2024-02-16T13:06:53.631Z,4.27
2024-02-16T13:09:22.008Z,5.50
2024-02-16T13:11:56.006Z,7.63
2024-02-16T13:14:28.932Z,6.07
2024-02-16T13:16:59.904Z,4.33
2024-02-16T13:19:28.310Z,5.13
2024-02-16T13:21:58.674Z,7.50
2024-02-16T13:24:29.721Z,7.37
2024-02-16T13:26:58.949Z,5.20
2024-02-16T13:29:29.334Z,5.73
2024-02-16T13:32:00.998Z,7.33
2024-02-16T13:34:29.027Z,4.07
2024-02-16T13:36:59.255Z,4.80
2024-02-16T13:39:28.538Z,4.27
2024-02-16T13:41:58.658Z,5.23
2024-02-16T13:44:29.518Z,6.60
2024-02-16T13:46:59.421Z,5.50
2024-02-16T13:49:27.276Z,5.50
2024-02-16T13:51:59.753Z,6.60
2024-02-16T13:54:27.924Z,9.60
2024-02-16T13:56:55.909Z,6.07
2024-02-16T13:59:25.288Z,7.63
2024-02-16T14:01:59.509Z,5.73
2024-02-16T14:04:28.369Z,4.93
2024-02-16T14:06:56.847Z,6.70
2024-02-16T14:09:30.261Z,6.13
2024-02-16T14:12:02.202Z,6.00
2024-02-16T14:14:37.087Z,3.97
2024-02-16T14:17:08.134Z,9.53
2024-02-16T14:19:38.754Z,6.93
2024-02-16T14:22:08.056Z,5.93
2024-02-16T14:24:36.261Z,8.30
2024-02-16T14:27:04.841Z,7.27
2024-02-16T14:29:33.199Z,7.57
2024-02-16T14:32:02.039Z,5.03
2024-02-16T14:34:33.878Z,3.73
2024-02-16T14:37:05.465Z,8.27
2024-02-16T14:39:35.309Z,5.07
2024-02-16T14:42:05.740Z,5.73
2024-02-16T14:44:33.781Z,8.60
2024-02-16T14:47:02.254Z,10.07
2024-02-16T14:49:32.401Z,7.77
2024-02-16T14:52:04.623Z,7.47
2024-02-16T14:54:34.108Z,5.47
2024-02-16T14:57:05.018Z,9.93
2024-02-16T14:59:32.888Z,6.83
2024-02-16T15:02:03.645Z,4.00
2024-02-16T15:04:32.304Z,6.70
2024-02-16T15:07:02.607Z,8.07
2024-02-16T15:09:31.908Z,4.70
2024-02-16T15:12:00.158Z,5.87
2024-02-16T15:14:35.409Z,6.07
2024-02-16T15:17:04.328Z,8.47
2024-02-16T15:19:33.864Z,7.60
2024-02-16T15:22:09.275Z,6.33
2024-02-16T15:24:39.345Z,6.93
2024-02-16T15:27:08.226Z,4.63
2024-02-16T15:29:43.595Z,4.10
2024-02-16T15:32:14.013Z,6.87
2024-02-16T15:34:45.339Z,8.80
2024-02-16T15:37:18.885Z,4.63
2024-02-16T15:39:47.117Z,7.57
2024-02-16T15:42:22.035Z,13.07
2024-02-16T15:44:55.075Z,5.10
2024-02-16T15:47:24.117Z,7.20
2024-02-16T15:49:57.339Z,7.40
2024-02-16T15:52:31.116Z,4.60
2024-02-16T15:55:01.077Z,6.83
2024-02-16T15:57:33.400Z,7.77
2024-02-16T16:00:04.442Z,6.73
2024-02-16T16:02:47.024Z,4.47
2024-02-16T16:05:17.047Z,9.83
2024-02-16T16:07:56.363Z,4.97
2024-02-16T16:10:24.587Z,6.77
2024-02-16T16:12:52.431Z,4.13
2024-02-16T16:15:20.838Z,5.40
2024-02-16T16:17:56.044Z,5.07
2024-02-16T16:20:26.790Z,6.13
2024-02-16T16:23:09.997Z,5.20
2024-02-16T16:25:39.131Z,8.17
2024-02-16T16:28:08.660Z,6.17
2024-02-16T16:30:36.877Z,5.37
2024-02-16T16:33:11.896Z,4.97
2024-02-16T16:35:44.391Z,5.10
2024-02-16T16:38:17.031Z,6.37
2024-02-16T16:40:45.167Z,7.57
2024-02-16T16:43:16.312Z,8.37
2024-02-16T16:45:46.912Z,4.97
2024-02-16T16:48:15.233Z,6.27
2024-02-16T16:50:46.226Z,7.53
2024-02-16T16:53:17.706Z,6.67
2024-02-16T16:55:49.623Z,6.17
2024-02-16T16:58:25.536Z,7.30
2024-02-16T17:00:56.527Z,8.27
2024-02-16T17:03:26.907Z,10.17
2024-02-16T17:05:57.580Z,5.07
2024-02-16T17:08:30.997Z,5.93
2024-02-16T17:11:02.781Z,6.53
2024-02-16T17:13:31.264Z,5.87
2024-02-16T17:16:03.480Z,8.43
2024-02-16T17:18:35.771Z,9.23
2024-02-16T17:21:05.959Z,5.87
2024-02-16T17:23:36.524Z,9.37
2024-02-16T17:26:13.717Z,7.57
2024-02-16T17:28:44.098Z,8.30
2024-02-16T17:31:13.148Z,5.97
2024-02-16T17:33:45.269Z,6.70
2024-02-16T17:36:14.184Z,9.10
2024-02-16T17:38:47.799Z,6.13
2024-02-16T17:41:36.566Z,7.77
2024-02-16T17:44:06.248Z,5.67
2024-02-16T17:46:36.044Z,7.23
2024-02-16T17:49:06.316Z,6.53
2024-02-16T17:51:42.564Z,5.97
2024-02-16T17:54:12.961Z,5.67
2024-02-16T17:56:43.659Z,8.13
2024-02-16T17:59:16.491Z,6.47
2024-02-16T18:01:47.116Z,9.97
2024-02-16T18:04:17.925Z,8.43
2024-02-16T18:06:48.855Z,8.30
2024-02-16T18:09:19.162Z,10.40
2024-02-16T18:11:49.371Z,9.47
2024-02-16T18:14:17.697Z,9.70
2024-02-16T18:16:46.303Z,10.57
2024-02-16T18:19:14.660Z,9.27
2024-02-16T18:21:45.821Z,9.60
2024-02-16T18:24:16.821Z,13.60
2024-02-16T18:26:46.516Z,7.80
2024-02-16T18:29:14.821Z,10.70
2024-02-16T18:31:44.488Z,11.20
2024-02-16T18:34:13.770Z,10.73
2024-02-16T18:36:45.554Z,11.60
2024-02-16T18:39:13.884Z,9.40
2024-02-16T18:41:44.378Z,8.40
2024-02-16T18:44:15.506Z,11.33
2024-02-16T18:46:46.141Z,12.60
2024-02-16T18:49:18.393Z,7.63
2024-02-16T18:51:50.694Z,10.47
2024-02-16T18:54:18.775Z,8.87
2024-02-16T18:56:47.714Z,9.50
2024-02-16T18:59:17.797Z,13.13
2024-02-16T19:01:45.847Z,8.17
2024-02-16T19:04:14.224Z,11.47
2024-02-16T19:06:44.567Z,10.93
2024-02-16T19:09:13.149Z,11.37
2024-02-16T19:11:41.951Z,12.40
2024-02-16T19:14:15.360Z,10.20
2024-02-16T19:16:46.379Z,12.53
2024-02-16T19:19:18.826Z,10.47
2024-02-16T19:21:47.243Z,11.50
2024-02-16T19:24:25.482Z,10.43
2024-02-16T19:27:01.685Z,12.47
2024-02-16T19:29:29.588Z,9.77
2024-02-16T19:32:01.225Z,11.33
2024-02-16T19:34:29.537Z,13.10
2024-02-16T19:36:58.986Z,11.03
2024-02-16T19:39:29.270Z,10.80
2024-02-16T19:42:00.425Z,10.97
2024-02-16T19:44:30.374Z,12.47
2024-02-16T19:47:00.608Z,13.17
2024-02-16T19:49:32.776Z,12.50
2024-02-16T19:52:02.373Z,11.80
2024-02-16T19:54:31.675Z,10.93
2024-02-16T19:57:01.498Z,9.87
2024-02-16T19:59:30.422Z,10.27
2024-02-16T20:01:59.179Z,13.43
2024-02-16T20:04:31.208Z,11.50
2024-02-16T20:06:59.391Z,13.30
2024-02-16T20:09:31.955Z,11.77
2024-02-16T20:12:00.993Z,15.23
2024-02-16T20:14:28.986Z,12.57
2024-02-16T20:16:57.182Z,14.20
2024-02-16T20:19:29.327Z,12.83
2024-02-16T20:22:00.055Z,14.43
2024-02-16T20:24:29.685Z,13.43
2024-02-16T20:27:01.360Z,14.60
2024-02-16T20:29:33.322Z,16.47
2024-02-16T20:32:05.381Z,16.23
2024-02-16T20:34:35.365Z,14.23
2024-02-16T20:37:05.561Z,12.40
2024-02-16T20:39:40.895Z,12.47
2024-02-16T20:42:12.722Z,13.40
2024-02-16T20:44:43.461Z,12.67
2024-02-16T20:47:16.098Z,13.33
2024-02-16T20:49:45.071Z,15.80
2024-02-16T20:52:15.635Z,13.40
2024-02-16T20:54:43.785Z,13.90
2024-02-16T20:57:12.272Z,13.93
2024-02-16T20:59:42.909Z,15.20
2024-02-16T21:02:15.976Z,15.50
2024-02-16T21:04:46.476Z,14.03
2024-02-16T21:07:17.883Z,13.77
2024-02-16T21:09:49.565Z,18.60
2024-02-16T21:12:18.684Z,17.17
2024-02-16T21:14:48.822Z,16.57
2024-02-16T21:17:18.534Z,14.60
2024-02-16T21:19:50.537Z,14.73
2024-02-16T21:22:19.716Z,16.00
2024-02-16T21:24:48.964Z,16.50
2024-02-16T21:27:17.904Z,14.47
2024-02-16T21:29:54.957Z,14.07
2024-02-16T21:32:29.277Z,13.50
2024-02-16T21:35:01.462Z,12.00
2024-02-16T21:37:36.730Z,14.00
2024-02-16T21:40:07.634Z,14.87
2024-02-16T21:42:37.812Z,14.93
2024-02-16T21:45:11.063Z,13.93
2024-02-16T21:47:50.035Z,14.53
2024-02-16T21:50:24.874Z,12.93
2024-02-16T21:52:55.474Z,12.10
2024-02-16T21:55:23.980Z,11.67
2024-02-16T21:57:55.031Z,10.80
2024-02-16T22:00:24.865Z,11.33
2024-02-16T22:02:53.454Z,12.23
2024-02-16T22:05:25.486Z,8.50
2024-02-16T22:07:56.931Z,10.07
2024-02-16T22:10:25.114Z,11.17
2024-02-16T22:12:54.863Z,10.70
2024-02-16T22:15:23.892Z,10.83
2024-02-16T22:17:57.781Z,10.57
2024-02-16T22:20:25.875Z,10.90
2024-02-16T22:22:56.101Z,11.77
2024-02-16T22:25:28.076Z,9.90
2024-02-16T22:27:56.409Z,9.37
2024-02-16T22:30:24.821Z,10.50
2024-02-16T22:32:52.985Z,9.93
2024-02-16T22:35:21.820Z,10.10
2024-02-16T22:37:50.482Z,4.27
2024-02-16T22:40:21.624Z,5.50
2024-02-16T22:42:52.572Z,4.70
2024-02-16T22:45:21.112Z,4.23
2024-02-16T22:47:49.330Z,3.80
2024-02-16T22:50:18.321Z,4.13
2024-02-16T22:52:46.391Z,4.60
2024-02-16T22:55:14.887Z,4.50
2024-02-16T22:57:44.288Z,7.00
2024-02-16T23:00:24.087Z,5.50
2024-02-16T23:02:53.176Z,6.30
2024-02-16T23:05:24.910Z,7.53
2024-02-16T23:07:54.635Z,7.80
2024-02-16T23:10:27.379Z,7.83
2024-02-16T23:12:55.743Z,7.87
2024-02-16T23:15:30.480Z,8.33
2024-02-16T23:18:00.160Z,9.47
2024-02-16T23:20:28.273Z,9.00
2024-02-16T23:23:01.427Z,9.50
2024-02-16T23:25:33.155Z,9.57
2024-02-16T23:28:03.914Z,11.17
2024-02-16T23:30:33.832Z,9.23
2024-02-16T23:33:08.861Z,9.97
2024-02-16T23:35:39.608Z,9.13
2024-02-16T23:38:08.745Z,8.43
2024-02-16T23:40:39.981Z,8.80
2024-02-16T23:43:14.637Z,9.10
2024-02-16T23:45:44.827Z,9.27
2024-02-16T23:48:14.730Z,8.30
2024-02-16T23:50:42.651Z,8.00
2024-02-16T23:53:12.514Z,8.30
2024-02-16T23:55:42.111Z,8.47
2024-02-16T23:58:11.678Z,8.33
